createdAt,value
2022-11-23T00:01:36.299Z,1.08
2022-11-23T00:04:07.071Z,1.20
2022-11-23T00:06:35.565Z,1.33
2022-11-23T00:09:03.639Z,1.10
2022-11-23T00:11:31.619Z,0.90
2022-11-23T00:13:59.496Z,0.93
2022-11-23T00:16:30.103Z,1.20
2022-11-23T00:19:00.265Z,1.10
2022-11-23T00:21:31.774Z,1.00
2022-11-23T00:24:00.189Z,1.00
2022-11-23T00:26:28.493Z,0.80
2022-11-23T00:28:56.415Z,0.87
2022-11-23T00:31:30.418Z,1.20
2022-11-23T00:33:58.881Z,0.80
2022-11-23T00:36:28.021Z,1.08
2022-11-23T00:38:57.976Z,0.77
2022-11-23T00:41:28.092Z,0.70
2022-11-23T00:43:56.091Z,0.70
2022-11-23T00:46:26.952Z,1.15
2022-11-23T00:48:57.838Z,0.82
2022-11-23T00:51:32.923Z,0.77
2022-11-23T00:54:03.051Z,0.80
2022-11-23T00:56:33.682Z,0.95
2022-11-23T00:59:03.396Z,1.10
2022-11-23T01:01:34.598Z,0.80
2022-11-23T01:04:05.116Z,0.60
2022-11-23T01:06:35.916Z,0.70
2022-11-23T01:09:14.964Z,0.60
2022-11-23T01:11:42.899Z,0.80
2022-11-23T01:14:10.989Z,1.30
2022-11-23T01:16:42.429Z,1.08
2022-11-23T01:19:17.057Z,1.10
2022-11-23T01:21:49.033Z,0.85
2022-11-23T01:24:20.516Z,0.80
2022-11-23T01:26:56.219Z,1.13
2022-11-23T01:29:25.747Z,0.70
2022-11-23T01:31:54.571Z,0.73
2022-11-23T01:34:22.994Z,1.02
2022-11-23T01:36:51.543Z,0.73
2022-11-23T01:39:22.995Z,0.90
2022-11-23T01:41:51.142Z,0.70
2022-11-23T01:44:21.956Z,0.90
2022-11-23T01:46:55.252Z,0.80
2022-11-23T01:49:25.510Z,0.73
2022-11-23T01:51:58.743Z,0.70
2022-11-23T01:54:34.934Z,0.55
2022-11-23T01:57:09.542Z,0.80
2022-11-23T01:59:37.813Z,0.70
2022-11-23T02:02:08.284Z,0.90
2022-11-23T02:04:41.134Z,0.90
2022-11-23T02:07:10.298Z,0.68
2022-11-23T02:09:38.608Z,1.03
2022-11-23T02:12:14.122Z,0.90
2022-11-23T02:14:45.938Z,0.80
2022-11-23T02:17:17.174Z,0.88
2022-11-23T02:19:54.078Z,0.70
2022-11-23T02:22:57.744Z,0.60
2022-11-23T02:25:44.492Z,0.75
2022-11-23T02:28:19.378Z,0.80
2022-11-23T02:30:50.568Z,0.85
2022-11-23T02:33:19.816Z,0.70
2022-11-23T02:35:53.104Z,0.60
2022-11-23T02:38:24.905Z,0.70
2022-11-23T02:40:53.388Z,0.70
2022-11-23T02:43:26.866Z,0.70
2022-11-23T02:46:00.104Z,0.70
2022-11-23T02:48:28.107Z,0.80
2022-11-23T02:50:56.485Z,0.50
2022-11-23T02:53:26.088Z,0.93
2022-11-23T02:55:56.381Z,0.80
2022-11-23T02:58:25.759Z,0.70
2022-11-23T03:00:53.736Z,0.60
2022-11-23T03:03:23.416Z,1.42
2022-11-23T03:05:51.982Z,0.73
2022-11-23T03:08:20.039Z,0.90
2022-11-23T03:10:49.000Z,1.00
2022-11-23T03:13:17.170Z,0.60
2022-11-23T03:15:45.797Z,0.70
2022-11-23T03:18:16.679Z,0.73
2022-11-23T03:20:44.920Z,1.17
2022-11-23T03:23:13.106Z,0.68
2022-11-23T03:25:41.525Z,0.60
2022-11-23T03:28:10.254Z,0.85
2022-11-23T03:30:38.411Z,0.70
2022-11-23T03:33:08.428Z,0.80
2022-11-23T03:35:38.390Z,0.80
2022-11-23T03:38:26.157Z,1.20
2022-11-23T03:40:55.426Z,0.85
2022-11-23T03:43:26.324Z,0.70
2022-11-23T03:45:54.767Z,0.60
2022-11-23T03:48:23.548Z,0.82
2022-11-23T03:50:51.900Z,0.80
2022-11-23T03:53:25.079Z,0.88
2022-11-23T03:55:56.359Z,0.80
2022-11-23T03:58:26.268Z,0.80
2022-11-23T04:00:55.739Z,1.35
2022-11-23T04:03:24.064Z,0.87
2022-11-23T04:06:07.303Z,0.60
2022-11-23T04:09:01.525Z,0.55
2022-11-23T04:11:49.421Z,0.80
2022-11-23T04:14:18.127Z,1.13
2022-11-23T04:16:46.119Z,0.50
2022-11-23T04:19:13.930Z,0.80
2022-11-23T04:21:41.960Z,0.57
2022-11-23T04:24:10.657Z,0.85
2022-11-23T04:26:40.894Z,0.70
2022-11-23T04:29:14.108Z,0.50
2022-11-23T04:31:47.033Z,0.60
2022-11-23T04:34:18.668Z,0.52
2022-11-23T04:36:46.768Z,0.60
2022-11-23T04:39:15.032Z,0.70
2022-11-23T04:41:59.482Z,0.93
2022-11-23T04:44:27.751Z,0.60
2022-11-23T04:47:15.686Z,0.70
2022-11-23T04:49:48.759Z,0.60
2022-11-23T04:52:17.645Z,0.77
2022-11-23T04:54:47.873Z,0.70
2022-11-23T04:57:15.931Z,0.80
2022-11-23T04:59:45.293Z,0.68
2022-11-23T05:02:13.471Z,1.30
2022-11-23T05:04:49.880Z,0.88
2022-11-23T05:07:19.486Z,0.70
2022-11-23T05:09:54.030Z,1.13
2022-11-23T05:12:22.949Z,1.40
2022-11-23T05:14:52.157Z,1.30
2022-11-23T05:17:25.874Z,0.80
2022-11-23T05:19:56.586Z,0.90
2022-11-23T05:22:25.528Z,0.60
2022-11-23T05:24:54.778Z,1.10
2022-11-23T05:27:25.910Z,1.13
2022-11-23T05:29:54.189Z,0.75
2022-11-23T05:32:23.182Z,1.10
2022-11-23T05:34:51.690Z,0.80
2022-11-23T05:37:20.179Z,0.90
2022-11-23T05:39:58.289Z,1.70
2022-11-23T05:42:26.454Z,1.35
2022-11-23T05:44:57.651Z,1.10
2022-11-23T05:47:35.204Z,1.48
2022-11-23T05:50:07.481Z,1.60
2022-11-23T05:52:40.931Z,1.60
2022-11-23T05:55:09.071Z,1.60
2022-11-23T05:57:37.133Z,1.03
2022-11-23T06:00:08.173Z,1.00
2022-11-23T06:02:47.036Z,1.20
2022-11-23T06:05:15.231Z,1.27
2022-11-23T06:07:53.379Z,1.23
2022-11-23T06:10:25.899Z,1.40
2022-11-23T06:12:54.317Z,1.10
2022-11-23T06:15:24.483Z,1.20
2022-11-23T06:17:52.697Z,1.00
2022-11-23T06:20:22.961Z,1.15
2022-11-23T06:22:59.714Z,1.00
2022-11-23T06:25:29.063Z,1.30
2022-11-23T06:28:17.151Z,1.30
2022-11-23T06:30:48.207Z,1.13
2022-11-23T06:33:16.416Z,1.30
2022-11-23T06:35:58.155Z,1.70
2022-11-23T06:38:30.737Z,1.60
2022-11-23T06:41:11.460Z,1.15
2022-11-23T06:43:40.963Z,0.98
2022-11-23T06:46:08.877Z,1.00
2022-11-23T06:48:47.140Z,1.00
2022-11-23T06:51:16.878Z,0.98
2022-11-23T06:53:46.360Z,1.10
2022-11-23T06:56:16.251Z,1.00
2022-11-23T06:58:44.369Z,1.23
2022-11-23T07:01:18.215Z,1.60
2022-11-23T07:04:00.650Z,1.70
2022-11-23T07:06:40.669Z,1.50
2022-11-23T07:09:16.017Z,1.23
2022-11-23T07:11:55.969Z,1.35
2022-11-23T07:14:23.862Z,1.30
2022-11-23T07:16:52.666Z,1.30
2022-11-23T07:19:20.660Z,1.48
2022-11-23T07:21:50.306Z,2.67
2022-11-23T07:24:18.381Z,3.67
2022-11-23T07:26:46.189Z,3.20
2022-11-23T07:29:15.521Z,3.00
2022-11-23T07:31:43.403Z,2.78
2022-11-23T07:34:11.769Z,1.60
2022-11-23T07:36:39.832Z,1.45
2022-11-23T07:39:12.703Z,1.33
2022-11-23T07:41:40.868Z,1.30
2022-11-23T07:44:22.249Z,1.70
2022-11-23T07:46:55.898Z,2.15
2022-11-23T07:49:23.832Z,2.28
2022-11-23T07:51:51.725Z,2.40
2022-11-23T07:54:23.647Z,2.47
2022-11-23T07:56:52.267Z,2.28
2022-11-23T07:59:20.033Z,2.40
2022-11-23T08:01:52.137Z,2.30
2022-11-23T08:04:23.485Z,2.70
2022-11-23T08:06:51.263Z,2.50
2022-11-23T08:09:19.292Z,3.10
2022-11-23T08:11:47.345Z,2.88
2022-11-23T08:14:15.470Z,2.88
2022-11-23T08:16:43.230Z,2.80
2022-11-23T08:19:11.304Z,2.50
2022-11-23T08:21:39.928Z,2.47
2022-11-23T08:24:09.137Z,2.05
2022-11-23T08:26:37.669Z,2.00
2022-11-23T08:29:06.373Z,1.77
2022-11-23T08:31:35.329Z,2.17
2022-11-23T08:34:03.935Z,1.80
2022-11-23T08:36:31.876Z,1.80
2022-11-23T08:38:59.869Z,2.22
2022-11-23T08:41:27.921Z,1.90
2022-11-23T08:43:55.845Z,1.38
2022-11-23T08:46:23.684Z,1.70
2022-11-23T08:48:51.582Z,1.67
2022-11-23T08:51:22.960Z,1.60
2022-11-23T08:53:51.483Z,1.70
2022-11-23T08:56:19.583Z,1.88
2022-11-23T08:58:48.087Z,1.80
2022-11-23T09:01:18.056Z,1.50
2022-11-23T09:03:46.325Z,1.60
2022-11-23T09:06:14.081Z,1.40
2022-11-23T09:08:42.101Z,1.50
2022-11-23T09:11:14.558Z,1.60
2022-11-23T09:13:42.488Z,1.50
2022-11-23T09:16:11.369Z,1.42
2022-11-23T09:18:39.443Z,1.23
2022-11-23T09:21:07.460Z,1.20
2022-11-23T09:23:35.469Z,1.20
2022-11-23T09:26:05.093Z,1.30
2022-11-23T09:28:33.741Z,1.08
2022-11-23T09:31:04.636Z,1.13
2022-11-23T09:33:34.969Z,1.02
2022-11-23T09:36:05.551Z,1.20
2022-11-23T09:38:55.002Z,1.60
2022-11-23T09:42:00.005Z,1.35
2022-11-23T09:44:39.669Z,1.30
2022-11-23T09:47:39.540Z,1.10
2022-11-23T09:50:07.357Z,1.27
2022-11-23T09:52:37.631Z,1.10
2022-11-23T09:55:14.859Z,1.25
2022-11-23T09:57:46.909Z,1.50
2022-11-23T10:00:21.623Z,1.63
2022-11-23T10:02:50.145Z,1.35
2022-11-23T10:05:25.462Z,1.90
2022-11-23T10:08:25.474Z,1.50
2022-11-23T10:11:06.679Z,1.50
2022-11-23T10:13:47.634Z,1.35
2022-11-23T10:16:39.846Z,1.50
2022-11-23T10:19:21.990Z,1.63
2022-11-23T10:22:03.437Z,1.88
2022-11-23T10:24:37.971Z,2.10
2022-11-23T10:27:23.293Z,1.77
2022-11-23T10:29:52.912Z,1.95
2022-11-23T10:32:42.560Z,1.77
2022-11-23T10:35:28.995Z,1.48
2022-11-23T10:38:19.180Z,1.67
2022-11-23T10:41:01.193Z,1.70
2022-11-23T10:43:35.736Z,1.67
2022-11-23T10:46:31.242Z,1.30
2022-11-23T10:49:28.460Z,1.48
2022-11-23T10:52:03.849Z,1.60
2022-11-23T10:54:48.940Z,1.63
2022-11-23T10:57:35.181Z,1.60
2022-11-23T11:00:13.440Z,1.52
2022-11-23T11:02:42.239Z,1.92
2022-11-23T11:05:39.951Z,1.50
2022-11-23T11:08:17.275Z,1.70
2022-11-23T11:10:51.264Z,1.70
2022-11-23T11:13:28.211Z,1.35
2022-11-23T11:16:07.905Z,1.55
2022-11-23T11:18:37.820Z,1.50
2022-11-23T11:21:34.934Z,1.80
2022-11-23T11:24:35.359Z,1.80
2022-11-23T11:27:18.567Z,1.95
2022-11-23T11:29:46.356Z,1.50
2022-11-23T11:32:27.537Z,1.43
2022-11-23T11:34:59.150Z,1.52
2022-11-23T11:37:46.124Z,1.50
2022-11-23T11:40:29.184Z,1.20
2022-11-23T11:43:14.609Z,1.30
2022-11-23T11:46:06.532Z,1.20
2022-11-23T11:49:00.111Z,1.80
2022-11-23T11:52:06.926Z,1.83
2022-11-23T11:54:52.478Z,1.70
2022-11-23T11:57:28.499Z,1.60
2022-11-23T11:59:58.728Z,1.60
2022-11-23T12:02:36.060Z,1.40
2022-11-23T12:05:18.675Z,1.60
2022-11-23T12:08:06.860Z,1.98
2022-11-23T12:10:54.204Z,1.20
2022-11-23T12:13:24.627Z,1.33
2022-11-23T12:16:27.416Z,1.30
2022-11-23T12:19:04.118Z,1.88
2022-11-23T12:21:50.115Z,1.20
2022-11-23T12:24:46.899Z,1.63
2022-11-23T12:27:35.306Z,1.30
2022-11-23T12:30:09.261Z,1.45
2022-11-23T12:33:07.382Z,1.35
2022-11-23T12:36:08.654Z,1.40
2022-11-23T12:39:12.835Z,1.20
2022-11-23T12:42:18.015Z,1.17
2022-11-23T12:45:24.574Z,1.73
2022-11-23T12:47:55.372Z,1.45
2022-11-23T12:50:40.157Z,1.50
2022-11-23T12:53:29.749Z,1.40
2022-11-23T12:56:12.563Z,1.40
2022-11-23T12:58:42.981Z,1.40
2022-11-23T13:01:17.052Z,1.50
2022-11-23T13:04:33.185Z,1.27
2022-11-23T13:10:04.260Z,1.60
2022-11-23T13:13:15.592Z,1.42
2022-11-23T13:16:08.626Z,1.30
2022-11-23T13:19:07.415Z,1.15
2022-11-23T13:21:41.444Z,1.00
2022-11-23T13:24:35.582Z,1.20
2022-11-23T13:27:16.045Z,1.38
2022-11-23T13:29:52.821Z,1.40
2022-11-23T13:32:46.893Z,1.10
2022-11-23T13:35:23.814Z,1.30
2022-11-23T13:37:57.646Z,1.40
2022-11-23T13:40:37.309Z,1.08
2022-11-23T13:43:17.166Z,1.35
2022-11-23T13:45:46.483Z,1.10
2022-11-23T13:48:49.033Z,1.33
2022-11-23T13:51:07.728Z,1.00
2022-11-23T13:53:40.248Z,1.15
2022-11-23T13:56:25.124Z,1.20
2022-11-23T13:59:24.795Z,1.30
2022-11-23T14:02:08.247Z,1.00
2022-11-23T14:04:50.054Z,1.20
2022-11-23T14:07:28.303Z,1.33
2022-11-23T14:10:09.875Z,1.17
2022-11-23T14:13:18.812Z,1.17
2022-11-23T14:15:58.325Z,1.42
2022-11-23T14:18:38.014Z,1.23
2022-11-23T14:21:26.128Z,1.50
2022-11-23T14:24:23.802Z,1.40
2022-11-23T14:27:23.754Z,1.48
2022-11-23T14:30:01.563Z,0.95
2022-11-23T14:33:14.836Z,1.27
2022-11-23T14:35:59.562Z,1.33
2022-11-23T14:38:39.455Z,1.20
2022-11-23T14:41:18.341Z,1.35
2022-11-23T14:43:47.708Z,0.98
2022-11-23T14:46:21.324Z,1.03
2022-11-23T14:48:50.256Z,0.80
2022-11-23T14:51:23.060Z,1.05
2022-11-23T14:54:03.042Z,0.80
2022-11-23T14:56:44.414Z,0.70
2022-11-23T14:59:18.690Z,0.63
2022-11-23T15:01:52.701Z,0.70
2022-11-23T15:04:25.897Z,1.00
2022-11-23T15:07:00.746Z,0.80
2022-11-23T15:09:51.767Z,0.80
2022-11-23T15:12:27.296Z,1.03
2022-11-23T15:15:00.392Z,0.70
2022-11-23T15:17:28.864Z,0.85
2022-11-23T15:20:01.786Z,0.80
2022-11-23T15:22:31.716Z,0.68
2022-11-23T15:25:09.601Z,0.70
2022-11-23T15:27:42.139Z,0.93
2022-11-23T15:30:31.368Z,0.98
2022-11-23T15:33:05.839Z,0.90
2022-11-23T15:35:37.246Z,1.60
2022-11-23T15:38:11.442Z,0.93
2022-11-23T15:40:42.194Z,1.00
2022-11-23T15:43:15.706Z,1.80
2022-11-23T15:45:47.029Z,1.08
2022-11-23T15:48:23.180Z,1.00
2022-11-23T15:51:11.992Z,1.30
2022-11-23T15:53:51.779Z,1.05
2022-11-23T15:56:33.691Z,1.08
2022-11-23T15:59:06.355Z,1.13
2022-11-23T16:01:34.549Z,1.17
2022-11-23T16:04:05.141Z,1.20
2022-11-23T16:06:40.601Z,1.35
2022-11-23T16:09:50.485Z,26.05
2022-11-23T16:12:26.492Z,3.42
2022-11-23T16:14:56.785Z,1.77
2022-11-23T16:17:29.736Z,1.70
2022-11-23T16:20:00.463Z,1.90
2022-11-23T16:22:38.255Z,7.05
2022-11-23T16:25:22.111Z,12.55
2022-11-23T16:28:01.534Z,13.80
2022-11-23T16:30:50.258Z,4.63
2022-11-23T16:33:20.736Z,14.32
2022-11-23T16:35:49.674Z,17.88
2022-11-23T16:38:18.229Z,18.65
2022-11-23T16:40:50.241Z,19.58
2022-11-23T16:43:19.221Z,10.93
2022-11-23T16:45:52.098Z,10.25
2022-11-23T16:48:26.124Z,9.43
2022-11-23T16:50:56.278Z,3.97
2022-11-23T16:53:27.575Z,5.68
2022-11-23T16:55:58.284Z,2.90
2022-11-23T16:58:30.891Z,2.13
2022-11-23T17:00:59.326Z,2.30
2022-11-23T17:03:27.383Z,2.65
2022-11-23T17:05:55.782Z,4.45
2022-11-23T17:08:24.227Z,8.97
2022-11-23T17:10:52.916Z,8.73
2022-11-23T17:13:30.540Z,6.25
2022-11-23T17:15:58.902Z,8.95
2022-11-23T17:18:27.213Z,6.43
2022-11-23T17:20:56.852Z,4.67
2022-11-23T17:23:25.104Z,3.67
2022-11-23T17:25:53.449Z,3.63
2022-11-23T17:28:22.239Z,3.05
2022-11-23T17:30:51.475Z,3.05
2022-11-23T17:33:20.252Z,5.97
2022-11-23T17:35:49.212Z,9.82
2022-11-23T17:38:22.992Z,7.45
2022-11-23T17:40:51.806Z,4.97
2022-11-23T17:43:20.835Z,4.68
2022-11-23T17:45:49.373Z,3.00
2022-11-23T17:48:18.563Z,2.80
2022-11-23T17:50:49.783Z,2.70
2022-11-23T17:53:22.573Z,2.60
2022-11-23T17:55:52.472Z,4.10
2022-11-23T17:58:20.615Z,4.50
2022-11-23T18:00:49.221Z,4.82
2022-11-23T18:03:17.312Z,5.25
2022-11-23T18:05:45.753Z,4.90
2022-11-23T18:08:14.626Z,5.10
2022-11-23T18:10:43.087Z,4.67
2022-11-23T18:13:11.140Z,5.00
2022-11-23T18:15:39.360Z,4.90
2022-11-23T18:18:07.782Z,5.28
2022-11-23T18:20:35.961Z,5.82
2022-11-23T18:23:04.295Z,5.73
2022-11-23T18:25:32.584Z,5.40
2022-11-23T18:28:00.532Z,5.80
2022-11-23T18:30:29.629Z,5.50
2022-11-23T18:32:59.015Z,4.30
2022-11-23T18:35:27.892Z,5.43
2022-11-23T18:37:55.952Z,5.70
2022-11-23T18:40:24.312Z,7.13
2022-11-23T18:42:52.531Z,6.68
2022-11-23T18:45:21.304Z,5.43
2022-11-23T18:47:49.317Z,4.00
2022-11-23T18:50:17.643Z,5.38
2022-11-23T18:52:45.796Z,4.82
2022-11-23T18:55:14.082Z,4.22
2022-11-23T18:57:42.212Z,4.15
2022-11-23T19:00:16.319Z,4.13
2022-11-23T19:02:44.486Z,3.90
2022-11-23T19:05:12.418Z,4.10
2022-11-23T19:07:40.867Z,4.00
2022-11-23T19:10:09.374Z,4.30
2022-11-23T19:12:37.653Z,9.30
2022-11-23T19:15:07.101Z,26.80
2022-11-23T19:17:35.437Z,27.55
2022-11-23T19:20:06.142Z,27.15
2022-11-23T19:22:34.855Z,44.53
2022-11-23T19:25:03.141Z,21.50
2022-11-23T19:27:36.553Z,23.08
2022-11-23T19:30:11.609Z,24.30
2022-11-23T19:32:41.255Z,13.68
2022-11-23T19:35:09.729Z,9.95
2022-11-23T19:37:38.013Z,9.10
2022-11-23T19:40:07.625Z,8.77
2022-11-23T19:42:36.540Z,8.13
2022-11-23T19:45:05.737Z,24.23
2022-11-23T19:47:33.968Z,43.55
2022-11-23T19:50:01.948Z,21.97
2022-11-23T19:52:55.578Z,8.88
2022-11-23T19:55:20.962Z,23.00
2022-11-23T19:57:49.172Z,21.45
2022-11-23T20:00:17.698Z,16.50
2022-11-23T20:02:45.982Z,12.60
2022-11-23T20:05:14.949Z,8.07
2022-11-23T20:07:43.211Z,5.47
2022-11-23T20:10:11.245Z,6.63
2022-11-23T20:12:39.373Z,7.30
2022-11-23T20:15:08.873Z,8.13
2022-11-23T20:17:37.173Z,7.50
2022-11-23T20:20:05.471Z,8.88
2022-11-23T20:22:33.656Z,7.57
2022-11-23T20:25:04.385Z,6.30
2022-11-23T20:27:32.646Z,6.72
2022-11-23T20:30:03.999Z,8.87
2022-11-23T20:32:35.505Z,5.55
2022-11-23T20:35:04.176Z,6.05
2022-11-23T20:37:34.429Z,3.58
2022-11-23T20:40:02.660Z,3.53
2022-11-23T20:42:30.787Z,2.80
2022-11-23T20:44:59.104Z,2.40
2022-11-23T20:47:28.731Z,2.33
2022-11-23T20:49:56.990Z,3.10
2022-11-23T20:52:24.955Z,2.40
2022-11-23T20:54:53.006Z,3.03
2022-11-23T20:57:22.425Z,3.90
2022-11-23T20:59:51.000Z,3.80
2022-11-23T21:02:19.419Z,3.10
2022-11-23T21:04:48.184Z,2.70
2022-11-23T21:07:16.274Z,2.10
2022-11-23T21:09:44.471Z,2.40
2022-11-23T21:12:30.661Z,2.95
2022-11-23T21:14:58.887Z,3.22
2022-11-23T21:17:26.775Z,2.50
2022-11-23T21:19:55.015Z,2.10
2022-11-23T21:22:23.024Z,2.13
2022-11-23T21:24:51.165Z,2.30
2022-11-23T21:27:23.692Z,1.75
2022-11-23T21:29:53.173Z,1.80
2022-11-23T21:32:21.487Z,2.00
2022-11-23T21:34:50.106Z,2.00
2022-11-23T21:37:18.322Z,1.70
2022-11-23T21:39:52.507Z,1.50
2022-11-23T21:42:21.842Z,1.30
2022-11-23T21:44:49.736Z,1.60
2022-11-23T21:47:18.163Z,3.80
2022-11-23T21:49:46.500Z,3.60
2022-11-23T21:52:14.697Z,3.40
2022-11-23T21:54:48.577Z,2.90
2022-11-23T21:57:17.405Z,2.20
2022-11-23T21:59:45.281Z,2.75
2022-11-23T22:02:13.704Z,2.40
2022-11-23T22:04:41.700Z,2.20
2022-11-23T22:07:10.104Z,2.47
2022-11-23T22:09:38.392Z,2.50
2022-11-23T22:12:07.518Z,2.13
2022-11-23T22:14:35.744Z,2.13
2022-11-23T22:17:04.788Z,2.00
2022-11-23T22:19:32.907Z,2.72
2022-11-23T22:22:01.023Z,9.90
2022-11-23T22:24:29.030Z,8.95
2022-11-23T22:26:57.172Z,5.63
2022-11-23T22:29:26.190Z,4.60
2022-11-23T22:31:55.717Z,4.45
2022-11-23T22:34:23.792Z,4.50
2022-11-23T22:36:51.985Z,3.17
2022-11-23T22:39:20.430Z,2.78
2022-11-23T22:41:49.058Z,2.70
2022-11-23T22:44:17.082Z,2.42
2022-11-23T22:46:45.389Z,2.05
2022-11-23T22:49:13.750Z,2.27
2022-11-23T22:51:42.058Z,1.90
2022-11-23T22:54:10.478Z,1.85
2022-11-23T22:56:39.604Z,1.77
2022-11-23T22:59:07.645Z,1.80
2022-11-23T23:01:35.921Z,1.87
2022-11-23T23:04:04.046Z,1.40
2022-11-23T23:06:36.708Z,1.70
2022-11-23T23:09:06.954Z,2.05
2022-11-23T23:11:37.057Z,2.30
2022-11-23T23:14:05.432Z,2.10
2022-11-23T23:16:33.741Z,1.98
2022-11-23T23:19:03.963Z,1.58
2022-11-23T23:21:32.333Z,1.77
2022-11-23T23:24:02.244Z,1.75
2022-11-23T23:26:30.706Z,3.10
2022-11-23T23:29:00.854Z,3.25
2022-11-23T23:31:30.981Z,2.92
2022-11-23T23:34:00.273Z,2.53
2022-11-23T23:36:28.249Z,2.08
2022-11-23T23:38:58.103Z,1.95
2022-11-23T23:41:26.187Z,1.53
2022-11-23T23:43:54.249Z,1.50
2022-11-23T23:46:22.704Z,1.30
2022-11-23T23:48:50.717Z,1.45
2022-11-23T23:51:22.472Z,1.50
2022-11-23T23:53:51.795Z,1.30
2022-11-23T23:56:24.894Z,1.30
2022-11-23T23:58:55.243Z,1.30
